Time;durP1;ratioP1;P1;durP2;ratioP2;P2;SDS_P1;SDS_P2;PMS_P1;PMS_P2;Temp;Humidity;BMP_temperature;BMP_pressure;BME280_temperature;BME280_humidity;BME280_pressure;Samples;Min_cycle;Max_cycle;Signal;HPM_P1;HPM_P2
2023/04/03 00:01:20;;;;;;;3.70;2.00;;;4.40;99.90;;;;;;5032987;28;20703;-75
2023/04/03 00:04:09;;;;;;;8.07;3.47;;;4.10;99.90;;;;;;5028542;28;20248;-76
2023/04/03 00:06:59;;;;;;;4.77;2.00;;;4.10;99.90;;;;;;5033615;28;20279;-76
2023/04/03 00:09:48;;;;;;;3.20;1.60;;;4.10;99.90;;;;;;5011010;28;20705;-76
2023/04/03 00:12:37;;;;;;;3.47;1.50;;;3.90;99.90;;;;;;5031656;28;20315;-74
2023/04/03 00:15:29;;;;;;;3.97;1.63;;;3.80;99.90;;;;;;5033085;28;20649;-75
2023/04/03 00:18:19;;;;;;;3.27;1.80;;;3.70;99.90;;;;;;5035287;28;20233;-73
2023/04/03 00:21:09;;;;;;;1.90;1.40;;;3.70;99.90;;;;;;5017367;28;20224;-75
2023/04/03 00:24:03;;;;;;;2.57;1.50;;;3.80;99.90;;;;;;5018701;28;20593;-75
2023/04/03 00:26:52;;;;;;;3.67;1.60;;;3.80;99.90;;;;;;5020407;28;20380;-74
2023/04/03 00:29:41;;;;;;;5.07;1.40;;;3.70;99.90;;;;;;5033612;28;20970;-76
2023/04/03 00:32:30;;;;;;;4.37;1.53;;;3.70;99.90;;;;;;5037262;28;20239;-76
2023/04/03 00:35:20;;;;;;;5.47;1.70;;;3.60;99.90;;;;;;5035420;28;20224;-76
2023/04/03 00:38:09;;;;;;;3.73;1.80;;;3.70;99.90;;;;;;5024468;28;20221;-77
2023/04/03 00:40:59;;;;;;;3.60;1.50;;;3.50;99.90;;;;;;5051519;28;20661;-76
2023/04/03 00:43:48;;;;;;;3.90;1.70;;;3.50;99.90;;;;;;5021325;28;20217;-78
2023/04/03 00:46:37;;;;;;;3.13;1.50;;;3.70;99.90;;;;;;5039911;28;20307;-80
2023/04/03 00:49:27;;;;;;;4.60;1.80;;;3.40;99.90;;;;;;5022467;28;20260;-78
2023/04/03 00:52:19;;;;;;;4.30;1.53;;;3.50;99.90;;;;;;5005635;28;20222;-78
2023/04/03 00:55:10;;;;;;;6.37;1.73;;;3.60;99.90;;;;;;5039443;28;20225;-78
2023/04/03 00:58:02;;;;;;;2.70;1.50;;;3.40;99.90;;;;;;5035918;28;20221;-75
2023/04/03 01:00:57;;;;;;;4.20;1.43;;;3.40;99.90;;;;;;5033036;28;20232;-77
2023/04/03 01:03:46;;;;;;;2.57;1.50;;;3.50;99.90;;;;;;5035538;28;20247;-77
2023/04/03 01:06:41;;;;;;;3.80;1.70;;;3.30;99.90;;;;;;4997720;28;20218;-75
2023/04/03 01:09:31;;;;;;;3.93;1.57;;;3.30;99.90;;;;;;5030127;28;20768;-76
2023/04/03 01:12:25;;;;;;;3.97;1.80;;;3.10;99.90;;;;;;5014620;28;20763;-75
2023/04/03 01:15:19;;;;;;;2.70;1.30;;;3.20;99.90;;;;;;5002479;28;20237;-76
2023/04/03 01:18:11;;;;;;;3.00;1.17;;;3.20;99.90;;;;;;5034523;28;20320;-76
2023/04/03 01:21:38;;;;;;;3.27;1.33;;;3.20;99.90;;;;;;5039777;28;20632;-75
2023/04/03 01:24:35;;;;;;;3.53;1.27;;;3.10;99.90;;;;;;5012541;28;20379;-77
2023/04/03 01:27:25;;;;;;;3.27;1.30;;;3.10;99.90;;;;;;5041510;28;20300;-77
2023/04/03 01:30:21;;;;;;;2.67;1.13;;;2.90;99.90;;;;;;5028520;28;20226;-76
2023/04/03 01:33:11;;;;;;;2.00;1.20;;;3.00;99.90;;;;;;5020452;28;20225;-74
2023/04/03 01:36:00;;;;;;;2.50;1.03;;;2.90;99.90;;;;;;5035459;28;20228;-73
2023/04/03 01:38:50;;;;;;;5.00;1.70;;;3.00;99.90;;;;;;5024433;28;21001;-73
2023/04/03 01:41:39;;;;;;;4.70;1.47;;;3.10;99.90;;;;;;5044254;28;20354;-73
2023/04/03 01:44:36;;;;;;;4.27;1.10;;;3.00;99.90;;;;;;5044008;28;20683;-72
2023/04/03 01:47:25;;;;;;;3.73;1.17;;;2.90;99.90;;;;;;5038410;28;20229;-74
2023/04/03 01:50:16;;;;;;;2.27;1.10;;;2.90;99.90;;;;;;5027018;28;20807;-73
2023/04/03 01:53:06;;;;;;;8.07;1.20;;;2.90;99.90;;;;;;5021793;28;20221;-76
2023/04/03 01:55:55;;;;;;;4.87;1.63;;;2.90;99.90;;;;;;5021418;28;20232;-72
2023/04/03 01:58:44;;;;;;;3.20;1.30;;;2.90;99.90;;;;;;5030831;28;20358;-72
2023/04/03 02:01:33;;;;;;;2.60;1.20;;;2.80;99.90;;;;;;5012847;28;20359;-71
2023/04/03 02:04:25;;;;;;;2.40;1.17;;;2.70;99.90;;;;;;5020037;28;20247;-74
2023/04/03 02:07:16;;;;;;;3.37;1.07;;;2.70;99.90;;;;;;5030342;28;20220;-76
2023/04/03 02:10:06;;;;;;;2.57;1.10;;;2.70;99.90;;;;;;5050294;28;20290;-74
2023/04/03 02:12:55;;;;;;;2.60;1.20;;;2.60;99.90;;;;;;5020639;28;20224;-72
2023/04/03 02:15:46;;;;;;;2.07;1.13;;;2.70;99.90;;;;;;5003239;28;20647;-73
2023/04/03 02:18:38;;;;;;;4.23;1.23;;;2.70;99.90;;;;;;5017402;28;20873;-74
2023/04/03 02:21:27;;;;;;;1.93;1.10;;;2.50;99.90;;;;;;5016668;28;20326;-75
2023/04/03 02:24:18;;;;;;;3.30;1.00;;;2.40;99.90;;;;;;5034971;28;22022;-75
2023/04/03 02:27:07;;;;;;;3.57;1.50;;;2.50;99.90;;;;;;5034375;28;20232;-76
2023/04/03 02:29:56;;;;;;;3.17;1.00;;;2.50;99.90;;;;;;5020061;28;20230;-75
2023/04/03 02:32:45;;;;;;;3.60;1.53;;;2.40;99.90;;;;;;5033092;28;20220;-75
2023/04/03 02:35:34;;;;;;;2.70;1.10;;;2.60;99.90;;;;;;4998533;28;20605;-75
2023/04/03 02:38:24;;;;;;;4.53;1.43;;;2.50;99.90;;;;;;5032985;28;20764;-76
2023/04/03 02:41:16;;;;;;;2.70;1.33;;;2.40;99.90;;;;;;5035650;28;20230;-75
2023/04/03 02:44:07;;;;;;;4.43;1.30;;;2.40;99.90;;;;;;5034844;28;20233;-76
2023/04/03 02:46:56;;;;;;;4.43;1.20;;;2.40;99.90;;;;;;5003717;28;20225;-76
2023/04/03 02:49:45;;;;;;;4.00;1.20;;;2.40;99.90;;;;;;5009191;28;20233;-74
2023/04/03 02:52:34;;;;;;;3.57;1.13;;;2.40;99.90;;;;;;5016600;28;20228;-74
2023/04/03 02:55:23;;;;;;;7.00;1.57;;;2.50;99.90;;;;;;5010849;28;20244;-75
2023/04/03 02:58:17;;;;;;;3.73;1.30;;;2.40;99.90;;;;;;5043997;28;20679;-75
2023/04/03 03:01:06;;;;;;;3.37;1.30;;;2.40;99.90;;;;;;5032330;28;20219;-75
2023/04/03 03:03:55;;;;;;;3.80;1.30;;;2.40;99.90;;;;;;5032905;28;20224;-75
2023/04/03 03:06:44;;;;;;;4.10;1.53;;;2.30;99.90;;;;;;5024749;28;20270;-75
2023/04/03 03:09:33;;;;;;;2.10;1.20;;;2.30;99.90;;;;;;5034533;28;20227;-75
2023/04/03 03:12:23;;;;;;;2.80;1.20;;;2.30;99.90;;;;;;5034308;28;20227;-77
2023/04/03 03:15:15;;;;;;;3.47;1.27;;;2.20;99.90;;;;;;5020034;28;20311;-75
2023/04/03 03:18:04;;;;;;;3.23;1.20;;;2.10;99.90;;;;;;5009026;28;20224;-74
2023/04/03 03:20:54;;;;;;;3.03;1.37;;;2.10;99.90;;;;;;5036534;28;20232;-75
2023/04/03 03:23:42;;;;;;;2.73;1.13;;;2.30;99.90;;;;;;5044848;28;20227;-74
2023/04/03 03:26:32;;;;;;;2.00;1.10;;;2.20;99.90;;;;;;5033715;28;20258;-76
2023/04/03 03:29:23;;;;;;;2.30;1.30;;;2.10;99.90;;;;;;5037482;28;20228;-74
2023/04/03 03:32:13;;;;;;;4.13;1.10;;;2.10;99.90;;;;;;5032468;28;20753;-76
2023/04/03 03:35:03;;;;;;;2.27;1.30;;;2.10;99.90;;;;;;5035199;28;20324;-77
2023/04/03 03:37:52;;;;;;;4.63;1.60;;;2.00;99.90;;;;;;5028613;28;20232;-77
2023/04/03 03:40:41;;;;;;;2.53;1.10;;;2.10;99.90;;;;;;5029525;28;20690;-77
2023/04/03 03:43:30;;;;;;;4.10;1.50;;;2.20;99.90;;;;;;5010311;28;20312;-77
2023/04/03 03:46:19;;;;;;;4.53;1.50;;;1.90;99.90;;;;;;5022864;28;20591;-77
2023/04/03 03:49:11;;;;;;;5.13;1.40;;;2.10;99.90;;;;;;5014395;28;20218;-77
2023/04/03 03:52:01;;;;;;;3.53;1.40;;;2.10;99.90;;;;;;5024069;28;20219;-78
2023/04/03 03:54:49;;;;;;;2.97;1.40;;;1.80;99.90;;;;;;5042164;28;20304;-77
2023/04/03 03:57:38;;;;;;;4.03;1.73;;;1.70;99.90;;;;;;5023278;28;20633;-78
2023/04/03 04:00:28;;;;;;;5.13;1.90;;;1.90;99.90;;;;;;5022164;28;20332;-74
2023/04/03 04:03:18;;;;;;;6.23;1.50;;;2.00;99.90;;;;;;5013964;28;20223;-76
2023/04/03 04:06:10;;;;;;;3.60;1.43;;;1.90;99.90;;;;;;5020036;28;20214;-76
2023/04/03 04:08:59;;;;;;;3.73;1.50;;;1.90;99.90;;;;;;5013908;28;20228;-76
2023/04/03 04:11:49;;;;;;;3.33;1.70;;;2.00;99.90;;;;;;5016692;28;21151;-76
2023/04/03 04:14:42;;;;;;;2.10;1.00;;;1.80;99.90;;;;;;4998693;28;20220;-76
2023/04/03 04:17:31;;;;;;;6.57;1.47;;;1.70;99.90;;;;;;5012946;28;20224;-75
2023/04/03 04:20:19;;;;;;;4.33;1.40;;;1.70;99.90;;;;;;5003881;28;20223;-76
2023/04/03 04:23:10;;;;;;;4.27;1.30;;;1.90;99.90;;;;;;5022206;28;20237;-77
2023/04/03 04:25:59;;;;;;;4.63;1.63;;;1.80;99.90;;;;;;5015563;28;20224;-75
2023/04/03 04:28:51;;;;;;;4.67;1.40;;;1.70;99.90;;;;;;5045708;28;20232;-75
2023/04/03 04:31:41;;;;;;;4.20;1.70;;;1.60;99.90;;;;;;5032726;28;20233;-76
2023/04/03 04:34:31;;;;;;;2.00;1.23;;;1.70;99.90;;;;;;5024648;28;20307;-76
2023/04/03 04:37:21;;;;;;;5.13;1.70;;;1.80;99.90;;;;;;5048817;28;20234;-75
2023/04/03 04:40:12;;;;;;;3.60;1.50;;;1.80;99.90;;;;;;5025102;28;20237;-77
2023/04/03 04:43:01;;;;;;;4.40;1.70;;;1.90;99.90;;;;;;5027505;28;20607;-77
2023/04/03 04:45:50;;;;;;;3.77;1.60;;;2.00;99.90;;;;;;5018942;28;20255;-77
2023/04/03 04:48:41;;;;;;;6.40;1.60;;;1.60;99.90;;;;;;5004480;28;20647;-73
2023/04/03 04:51:31;;;;;;;3.77;1.77;;;1.70;99.90;;;;;;5027922;28;20228;-72
2023/04/03 04:54:37;;;;;;;2.63;1.07;;;1.60;99.90;;;;;;5027620;28;20763;-73
2023/04/03 04:57:28;;;;;;;5.87;1.50;;;1.40;99.90;;;;;;5010577;28;20797;-75
2023/04/03 05:00:20;;;;;;;4.40;1.50;;;1.60;99.90;;;;;;5044138;28;20237;-76
2023/04/03 05:03:09;;;;;;;4.50;1.67;;;1.90;99.90;;;;;;5018592;28;20227;-77
2023/04/03 05:05:59;;;;;;;5.47;1.53;;;2.00;99.90;;;;;;5037176;28;20211;-76
2023/04/03 05:08:51;;;;;;;4.90;1.50;;;1.90;99.90;;;;;;5030351;28;20296;-74
2023/04/03 05:11:41;;;;;;;5.40;1.47;;;1.70;99.90;;;;;;5033567;28;20766;-74
2023/04/03 05:14:33;;;;;;;7.03;1.70;;;1.70;99.90;;;;;;5026729;28;20228;-74
2023/04/03 05:17:25;;;;;;;3.60;1.50;;;1.60;99.90;;;;;;5013352;28;20232;-77
2023/04/03 05:20:17;;;;;;;7.50;1.67;;;1.90;99.90;;;;;;5049597;28;20305;-77
2023/04/03 05:23:07;;;;;;;4.67;1.60;;;1.90;99.90;;;;;;5021253;28;20227;-75
2023/04/03 05:25:57;;;;;;;4.27;1.70;;;2.20;99.90;;;;;;5022400;28;20245;-74
2023/04/03 05:28:46;;;;;;;3.73;1.67;;;2.00;99.90;;;;;;5037292;28;20225;-74
2023/04/03 05:31:38;;;;;;;3.60;1.40;;;1.90;99.90;;;;;;5010508;28;20231;-75
2023/04/03 05:34:29;;;;;;;2.60;1.40;;;2.20;99.90;;;;;;5033802;28;20252;-82
2023/04/03 05:37:18;;;;;;;5.23;1.70;;;2.00;99.90;;;;;;5038305;28;20227;-73
2023/04/03 05:40:09;;;;;;;4.87;1.60;;;2.00;99.90;;;;;;5011178;28;20230;-70
2023/04/03 05:43:02;;;;;;;4.97;1.50;;;2.00;99.90;;;;;;5020852;28;20217;-71
2023/04/03 05:45:56;;;;;;;3.30;1.60;;;1.60;99.90;;;;;;5036647;28;20821;-78
2023/04/03 05:48:49;;;;;;;2.70;1.40;;;1.60;99.90;;;;;;5032619;28;20230;-73
2023/04/03 05:51:42;;;;;;;2.07;1.40;;;1.50;99.90;;;;;;5015567;28;20227;-80
2023/04/03 05:54:51;;;;;;;1.80;1.30;;;1.70;99.90;;;;;;5031453;28;20305;-78
2023/04/03 05:57:45;;;;;;;3.97;1.30;;;1.70;99.90;;;;;;5030052;28;20214;-78
2023/04/03 06:00:34;;;;;;;5.43;1.70;;;1.70;99.90;;;;;;5031805;28;20233;-75
2023/04/03 06:03:24;;;;;;;6.90;2.83;;;1.70;99.90;;;;;;5045569;28;21202;-76
2023/04/03 06:06:19;;;;;;;3.93;1.73;;;2.00;99.90;;;;;;5013243;28;20234;-75
2023/04/03 06:09:09;;;;;;;2.80;1.40;;;2.10;99.90;;;;;;5007169;28;21002;-73
2023/04/03 06:11:58;;;;;;;6.80;1.60;;;2.10;99.90;;;;;;5029392;28;20285;-74
2023/04/03 06:14:49;;;;;;;7.07;2.63;;;2.00;99.90;;;;;;5014239;28;20232;-78
2023/04/03 06:17:42;;;;;;;7.43;2.00;;;2.20;99.90;;;;;;5031521;28;20221;-79
2023/04/03 06:20:32;;;;;;;7.07;3.40;;;2.70;99.90;;;;;;5020360;28;20578;-78
2023/04/03 06:23:22;;;;;;;5.37;1.80;;;2.20;99.90;;;;;;5023196;28;20233;-77
2023/04/03 06:26:11;;;;;;;4.63;1.87;;;2.40;99.90;;;;;;5030233;28;20250;-74
2023/04/03 06:29:00;;;;;;;3.60;1.80;;;2.70;99.90;;;;;;5017208;28;20369;-74
2023/04/03 06:31:50;;;;;;;5.17;1.60;;;2.70;99.90;;;;;;5019976;28;20367;-76
2023/04/03 06:34:38;;;;;;;3.93;1.40;;;2.90;99.90;;;;;;5022488;28;20228;-74
2023/04/03 06:37:28;;;;;;;3.83;1.70;;;2.80;99.90;;;;;;5013537;28;20772;-77
2023/04/03 06:40:22;;;;;;;4.20;2.20;;;2.90;99.90;;;;;;5029186;28;20221;-77
2023/04/03 06:43:11;;;;;;;6.70;2.23;;;3.20;99.90;;;;;;5035408;28;20652;-83
2023/04/03 06:46:00;;;;;;;4.20;1.50;;;3.10;99.90;;;;;;5016712;28;20228;-81
2023/04/03 06:48:50;;;;;;;6.40;1.47;;;3.00;99.90;;;;;;5024382;28;20225;-81
2023/04/03 06:51:39;;;;;;;4.23;1.50;;;2.80;99.90;;;;;;5013808;28;20704;-81
2023/04/03 06:54:29;;;;;;;4.77;1.70;;;2.90;99.90;;;;;;5025144;28;20303;-82
2023/04/03 06:57:20;;;;;;;6.20;1.30;;;2.50;99.90;;;;;;5018589;28;20227;-82
2023/04/03 07:00:10;;;;;;;6.43;1.90;;;2.60;99.90;;;;;;5029771;28;20219;-82
2023/04/03 07:02:59;;;;;;;3.70;1.40;;;2.50;99.90;;;;;;5014574;28;20250;-81
2023/04/03 07:05:48;;;;;;;6.23;1.50;;;2.60;99.90;;;;;;5005616;28;20328;-82
2023/04/03 07:08:37;;;;;;;5.63;1.50;;;3.00;99.90;;;;;;5037599;28;20232;-83
2023/04/03 07:11:26;;;;;;;7.90;2.10;;;3.90;99.90;;;;;;5044806;28;20293;-82
2023/04/03 07:14:17;;;;;;;4.67;1.70;;;4.30;99.90;;;;;;5022512;28;20236;-82
2023/04/03 07:17:06;;;;;;;4.57;1.70;;;3.90;99.90;;;;;;5045946;28;20217;-86
2023/04/03 07:19:55;;;;;;;4.30;1.80;;;4.10;99.90;;;;;;5021111;28;20313;-84
2023/04/03 07:22:43;;;;;;;3.60;1.87;;;4.80;99.90;;;;;;5025293;28;20240;-83
2023/04/03 07:25:33;;;;;;;9.27;2.80;;;5.30;99.90;;;;;;5023186;28;20301;-82
2023/04/03 07:28:23;;;;;;;3.30;1.73;;;5.60;99.90;;;;;;5048123;28;20225;-83
2023/04/03 07:31:17;;;;;;;4.93;1.83;;;5.70;99.90;;;;;;5038910;28;20236;-83
2023/04/03 07:34:06;;;;;;;4.63;1.80;;;6.30;99.90;;;;;;5043284;28;20271;-88
2023/04/03 07:36:56;;;;;;;7.03;1.90;;;6.60;99.90;;;;;;5017339;28;20229;-84
2023/04/03 07:39:45;;;;;;;2.97;1.53;;;6.40;99.90;;;;;;5023088;28;20263;-82
2023/04/03 07:42:34;;;;;;;4.53;1.70;;;6.10;99.90;;;;;;5031361;28;20305;-84
2023/04/03 07:45:23;;;;;;;4.40;1.60;;;6.40;99.90;;;;;;5029336;28;20223;-81
2023/04/03 07:48:15;;;;;;;3.30;1.53;;;5.90;99.90;;;;;;5014236;28;20230;-83
2023/04/03 07:51:05;;;;;;;5.60;2.00;;;6.60;99.90;;;;;;5005761;28;20265;-81
2023/04/03 07:53:55;;;;;;;3.77;1.60;;;6.90;99.90;;;;;;5011833;28;20383;-75
2023/04/03 07:56:48;;;;;;;8.97;1.73;;;7.10;99.90;;;;;;5040455;28;20719;-81
2023/04/03 07:59:37;;;;;;;5.30;1.50;;;6.50;99.90;;;;;;5034809;28;20236;-78
2023/04/03 08:02:26;;;;;;;2.63;1.50;;;6.80;99.90;;;;;;5038671;28;20334;-79
2023/04/03 08:05:17;;;;;;;2.87;1.50;;;7.40;99.90;;;;;;5012948;28;20226;-78
2023/04/03 08:08:06;;;;;;;7.13;1.73;;;6.90;99.90;;;;;;5007752;28;20728;-80
2023/04/03 08:10:56;;;;;;;3.33;1.57;;;6.90;99.90;;;;;;5029596;28;20681;-81
2023/04/03 08:13:46;;;;;;;4.37;1.60;;;7.40;99.90;;;;;;5039691;28;20626;-81
2023/04/03 08:16:35;;;;;;;4.23;1.70;;;6.50;99.90;;;;;;5032011;28;20259;-72
2023/04/03 08:19:24;;;;;;;2.70;1.60;;;6.30;99.90;;;;;;5017499;28;20704;-75
2023/04/03 08:22:17;;;;;;;4.20;1.80;;;6.00;99.90;;;;;;5032678;28;20248;-76
2023/04/03 08:25:06;;;;;;;4.67;1.40;;;6.50;99.90;;;;;;5033978;28;20223;-77
2023/04/03 08:27:55;;;;;;;3.33;1.27;;;7.10;99.90;;;;;;5014198;28;20298;-77
2023/04/03 08:30:45;;;;;;;5.93;1.83;;;6.40;99.90;;;;;;5039805;28;20302;-75
2023/04/03 08:33:36;;;;;;;6.50;1.90;;;7.00;99.90;;;;;;5037022;28;20406;-77
2023/04/03 08:36:27;;;;;;;3.13;1.60;;;7.90;99.90;;;;;;5032255;28;20922;-77
2023/04/03 08:39:19;;;;;;;3.07;1.40;;;7.20;99.90;;;;;;5029240;28;20228;-78
2023/04/03 08:42:24;;;;;;;3.00;1.40;;;6.70;99.90;;;;;;5020483;28;20593;-76
2023/04/03 08:45:21;;;;;;;3.37;1.50;;;5.70;99.90;;;;;;5031036;28;20236;-78
2023/04/03 08:48:16;;;;;;;3.60;1.60;;;5.80;99.90;;;;;;5026738;28;20293;-77
2023/04/03 08:51:12;;;;;;;6.00;1.53;;;6.30;99.90;;;;;;5039871;28;20250;-78
2023/04/03 08:54:07;;;;;;;5.50;1.43;;;7.30;99.90;;;;;;5037812;28;20908;-78
2023/04/03 08:57:01;;;;;;;2.67;1.50;;;6.30;99.90;;;;;;5037082;28;20236;-76
2023/04/03 08:59:50;;;;;;;3.07;1.40;;;6.50;99.90;;;;;;5042130;28;20319;-79
2023/04/03 09:02:44;;;;;;;2.53;1.37;;;5.30;99.90;;;;;;5042254;28;20244;-76
2023/04/03 09:05:44;;;;;;;4.90;1.60;;;5.20;99.90;;;;;;5039975;28;20266;-75
2023/04/03 09:08:36;;;;;;;2.70;1.60;;;5.80;99.90;;;;;;5036134;28;20247;-74
2023/04/03 09:11:28;;;;;;;4.33;1.70;;;6.70;99.90;;;;;;5041796;28;20220;-75
2023/04/03 09:14:27;;;;;;;3.70;1.70;;;8.00;99.90;;;;;;5040741;28;20310;-77
2023/04/03 09:17:22;;;;;;;3.83;1.50;;;7.70;99.90;;;;;;5039152;28;20224;-75
2023/04/03 09:20:21;;;;;;;3.97;1.60;;;6.20;99.90;;;;;;5035544;28;21103;-71
2023/04/03 09:23:19;;;;;;;4.83;1.50;;;5.60;99.90;;;;;;5023692;28;20711;-73
2023/04/03 09:26:16;;;;;;;3.03;1.30;;;5.30;99.90;;;;;;5041603;28;20270;-75
2023/04/03 09:29:08;;;;;;;4.70;1.50;;;5.30;99.90;;;;;;5033070;28;20245;-76
2023/04/03 09:32:02;;;;;;;2.53;1.47;;;5.50;99.90;;;;;;5033990;28;20325;-76
2023/04/03 09:34:53;;;;;;;2.53;1.30;;;5.30;99.90;;;;;;5038109;28;20220;-77
2023/04/03 09:37:44;;;;;;;2.17;1.43;;;4.90;99.90;;;;;;5023193;28;20225;-77
2023/04/03 09:40:36;;;;;;;2.00;1.40;;;4.90;99.90;;;;;;5044495;28;20234;-83
2023/04/03 09:43:28;;;;;;;2.83;1.43;;;4.70;99.90;;;;;;5042619;28;20325;-83
2023/04/03 09:46:31;;;;;;;2.17;1.20;;;4.60;99.90;;;;;;5038517;28;20222;-82
2023/04/03 09:49:22;;;;;;;2.47;1.40;;;5.00;99.90;;;;;;5035149;28;20237;-82
2023/04/03 09:52:21;;;;;;;2.77;1.23;;;4.90;99.90;;;;;;5023337;28;20230;-79
2023/04/03 09:55:16;;;;;;;2.27;1.20;;;5.10;99.90;;;;;;5041850;28;20226;-83
2023/04/03 09:58:23;;;;;;;1.20;0.90;;;5.20;99.90;;;;;;5026050;28;20225;-77
2023/04/03 10:01:23;;;;;;;1.50;1.20;;;4.90;99.90;;;;;;5022040;28;20232;-75
2023/04/03 10:04:16;;;;;;;1.90;1.10;;;5.20;99.90;;;;;;5009514;28;20238;-76
2023/04/03 10:07:28;;;;;;;4.13;1.40;;;5.20;99.90;;;;;;5019638;28;20913;-75
2023/04/03 10:10:20;;;;;;;3.30;1.90;;;4.90;99.90;;;;;;5023426;28;20302;-75
2023/04/03 10:13:13;;;;;;;1.60;1.17;;;4.90;99.90;;;;;;5018798;28;20301;-76
2023/04/03 10:16:13;;;;;;;2.97;1.30;;;5.00;99.90;;;;;;5031912;28;20214;-79
2023/04/03 10:19:20;;;;;;;7.60;4.07;;;5.30;99.90;;;;;;5034789;28;20232;-83
2023/04/03 10:22:29;;;;;;;4.33;1.50;;;5.50;99.90;;;;;;5036418;28;20854;-77
2023/04/03 10:25:26;;;;;;;3.07;1.40;;;5.80;99.90;;;;;;5037402;28;20247;-74
2023/04/03 10:28:25;;;;;;;3.50;1.20;;;5.30;99.90;;;;;;5053932;28;20221;-72
2023/04/03 10:31:19;;;;;;;2.93;1.20;;;5.50;99.90;;;;;;5037322;28;20237;-71
2023/04/03 10:34:19;;;;;;;2.03;1.10;;;5.10;99.90;;;;;;5039413;28;20229;-74
2023/04/03 10:37:21;;;;;;;1.80;1.07;;;5.20;99.90;;;;;;5040658;28;20334;-76
2023/04/03 10:40:22;;;;;;;1.60;1.10;;;5.40;99.90;;;;;;5040392;28;21445;-78
2023/04/03 10:43:17;;;;;;;2.17;1.20;;;5.90;99.90;;;;;;5036686;28;20221;-78
2023/04/03 10:46:15;;;;;;;1.80;1.20;;;5.70;99.90;;;;;;5033853;28;20225;-76
2023/04/03 10:49:25;;;;;;;3.20;1.27;;;6.00;99.90;;;;;;5040690;28;20225;-76
2023/04/03 10:52:23;;;;;;;4.67;1.53;;;6.20;99.90;;;;;;5040015;28;20739;-76
2023/04/03 10:55:30;;;;;;;5.97;1.30;;;6.10;99.90;;;;;;5032134;28;20233;-75
2023/04/03 10:58:25;;;;;;;2.17;1.13;;;6.20;99.70;;;;;;5046784;28;20307;-70
2023/04/03 11:01:20;;;;;;;3.30;1.20;;;6.20;99.60;;;;;;5038914;28;20219;-69
2023/04/03 11:04:10;;;;;;;1.90;1.10;;;6.20;99.50;;;;;;5037450;28;20242;-72
2023/04/03 11:07:02;;;;;;;2.90;1.40;;;5.90;99.90;;;;;;5040376;28;20910;-71
2023/04/03 11:09:54;;;;;;;3.20;1.40;;;5.80;99.90;;;;;;5028224;28;20352;-72
2023/04/03 11:12:49;;;;;;;2.40;0.90;;;5.60;99.90;;;;;;5037647;28;20221;-72
2023/04/03 11:15:39;;;;;;;1.97;1.20;;;5.90;99.90;;;;;;5030387;28;20237;-74
2023/04/03 11:18:33;;;;;;;2.07;1.10;;;6.10;99.90;;;;;;5025535;28;20225;-73
2023/04/03 11:21:29;;;;;;;10.67;1.93;;;5.90;99.90;;;;;;5036150;28;21109;-75
2023/04/03 11:24:23;;;;;;;2.90;1.10;;;6.50;99.60;;;;;;5039606;28;20230;-74
2023/04/03 11:27:18;;;;;;;2.40;1.40;;;6.70;99.90;;;;;;5038504;28;20223;-76
2023/04/03 11:30:18;;;;;;;3.37;1.27;;;6.80;99.90;;;;;;5022112;28;20298;-74
2023/04/03 11:33:22;;;;;;;2.40;1.30;;;6.40;99.10;;;;;;5035072;28;20682;-73
2023/04/03 11:36:19;;;;;;;2.30;1.30;;;5.50;99.40;;;;;;5019605;28;20221;-73
2023/04/03 11:39:25;;;;;;;4.47;1.30;;;5.90;99.90;;;;;;5031628;28;20263;-73
2023/04/03 11:42:17;;;;;;;2.93;1.33;;;6.00;99.90;;;;;;5029484;28;20225;-74
2023/04/03 11:45:41;;;;;;;4.20;1.23;;;5.90;99.90;;;;;;5033014;28;20312;-73
2023/04/03 11:48:48;;;;;;;2.43;1.23;;;5.80;99.50;;;;;;5027024;28;20225;-71
2023/04/03 11:51:43;;;;;;;4.60;1.30;;;6.60;99.80;;;;;;5004846;28;20683;-72
2023/04/03 11:54:49;;;;;;;2.83;1.60;;;6.60;99.20;;;;;;5020912;28;20215;-71
2023/04/03 11:58:04;;;;;;;2.70;1.20;;;6.30;99.10;;;;;;5021215;28;20804;-73
2023/04/03 12:01:02;;;;;;;3.07;1.20;;;6.00;97.60;;;;;;5003381;28;20291;-72
2023/04/03 12:04:07;;;;;;;2.40;1.30;;;5.90;98.00;;;;;;5021788;28;20253;-72
2023/04/03 12:07:17;;;;;;;3.83;1.27;;;5.90;98.90;;;;;;5021453;28;20225;-73
2023/04/03 12:10:18;;;;;;;3.10;1.40;;;5.90;99.20;;;;;;5012039;28;20597;-73
2023/04/03 12:13:20;;;;;;;4.87;1.60;;;6.20;99.20;;;;;;5036952;28;20221;-77
2023/04/03 12:16:21;;;;;;;2.57;1.10;;;6.40;98.30;;;;;;5038581;28;20350;-81
2023/04/03 12:19:34;;;;;;;3.27;1.30;;;5.80;98.50;;;;;;5033067;28;20392;-81
2023/04/03 12:22:26;;;;;;;1.93;0.90;;;6.30;98.50;;;;;;5039651;28;20596;-81
2023/04/03 12:25:50;;;;;;;2.73;1.30;;;6.00;98.10;;;;;;5020725;28;20876;-74
2023/04/03 12:28:41;;;;;;;3.77;1.20;;;6.40;98.80;;;;;;5033902;28;20713;-73
2023/04/03 12:31:44;;;;;;;1.73;1.23;;;6.20;97.50;;;;;;5018855;28;20210;-74
2023/04/03 12:34:50;;;;;;;2.80;1.20;;;6.20;98.90;;;;;;5032129;28;20237;-74
2023/04/03 12:37:57;;;;;;;2.33;1.43;;;6.40;98.30;;;;;;5019818;28;20217;-74
2023/04/03 12:40:53;;;;;;;3.93;1.70;;;6.60;98.30;;;;;;5020493;28;20226;-76
2023/04/03 12:43:51;;;;;;;1.83;1.40;;;6.60;97.20;;;;;;5012410;28;20316;-74
2023/04/03 12:46:44;;;;;;;3.27;1.20;;;6.50;96.80;;;;;;5028012;28;20256;-75
2023/04/03 12:49:39;;;;;;;1.97;1.17;;;6.60;96.40;;;;;;5014458;28;20230;-74
2023/04/03 12:52:38;;;;;;;4.77;1.30;;;6.60;96.40;;;;;;5024086;28;20597;-72
2023/04/03 12:55:27;;;;;;;2.60;1.10;;;6.60;97.30;;;;;;5031697;28;20229;-74
2023/04/03 12:58:23;;;;;;;3.53;1.10;;;6.70;97.90;;;;;;5018023;28;20225;-72
2023/04/03 13:01:16;;;;;;;2.80;1.20;;;6.60;97.40;;;;;;5021870;28;20233;-72
2023/04/03 13:04:05;;;;;;;2.80;1.37;;;6.40;97.60;;;;;;5039692;28;20661;-74
2023/04/03 13:06:55;;;;;;;2.33;1.23;;;6.50;97.50;;;;;;5037919;28;20615;-75
2023/04/03 13:09:56;;;;;;;3.47;1.50;;;6.60;98.20;;;;;;5019093;28;20224;-72
2023/04/03 13:12:50;;;;;;;2.40;1.13;;;6.80;97.00;;;;;;5023756;28;20278;-73
2023/04/03 13:15:44;;;;;;;3.03;1.30;;;6.50;96.80;;;;;;5021023;28;20239;-71
2023/04/03 13:18:38;;;;;;;1.77;1.23;;;6.40;97.00;;;;;;5010491;28;20222;-71
2023/04/03 13:21:29;;;;;;;4.17;1.30;;;6.60;97.70;;;;;;5007822;28;20242;-73
2023/04/03 13:24:19;;;;;;;3.07;1.10;;;6.40;96.40;;;;;;5026333;28;20232;-72
2023/04/03 13:27:12;;;;;;;2.53;1.17;;;6.50;97.30;;;;;;5022839;28;20231;-72
2023/04/03 13:30:04;;;;;;;2.87;1.30;;;6.40;96.90;;;;;;5035318;28;20357;-71
2023/04/03 13:32:58;;;;;;;2.63;1.40;;;6.50;97.30;;;;;;5027693;28;20232;-70
2023/04/03 13:36:20;;;;;;;3.20;1.10;;;6.40;97.10;;;;;;5047826;28;20247;-72
2023/04/03 13:39:24;;;;;;;2.40;1.23;;;6.60;96.80;;;;;;5022577;28;20234;-72
2023/04/03 13:42:23;;;;;;;2.10;1.10;;;6.50;96.70;;;;;;5003993;28;20241;-73
2023/04/03 13:45:25;;;;;;;2.00;1.10;;;6.50;96.60;;;;;;5009260;28;20775;-72
2023/04/03 13:48:19;;;;;;;1.97;1.10;;;6.50;96.60;;;;;;5039139;28;20236;-72
2023/04/03 13:51:24;;;;;;;2.23;1.30;;;6.50;97.30;;;;;;5038190;28;20787;-69
2023/04/03 13:54:34;;;;;;;3.47;1.17;;;6.50;97.80;;;;;;4980952;28;20226;-71
2023/04/03 13:58:09;;;;;;;2.43;1.37;;;6.70;97.40;;;;;;5003498;28;20228;-71
2023/04/03 14:01:20;;;;;;;5.03;1.20;;;6.70;97.40;;;;;;5024868;28;20358;-73
2023/04/03 14:04:25;;;;;;;2.70;1.40;;;6.80;97.70;;;;;;5049339;28;21113;-70
2023/04/03 14:07:42;;;;;;;2.40;1.33;;;6.70;97.30;;;;;;5016316;28;20240;-73
2023/04/03 14:10:47;;;;;;;2.53;1.00;;;6.40;96.80;;;;;;5017445;28;20236;-73
2023/04/03 14:13:37;;;;;;;2.83;1.20;;;6.40;96.70;;;;;;5052273;28;20265;-72
2023/04/03 14:16:31;;;;;;;2.17;1.20;;;6.40;96.10;;;;;;5033055;28;20220;-71
2023/04/03 14:19:23;;;;;;;2.73;1.20;;;6.70;96.50;;;;;;5014888;28;20231;-73
2023/04/03 14:22:17;;;;;;;2.13;1.10;;;6.50;96.40;;;;;;5017354;28;20286;-73
2023/04/03 14:25:07;;;;;;;2.77;1.13;;;6.10;96.50;;;;;;5019800;28;20940;-71
2023/04/03 14:27:56;;;;;;;2.53;1.30;;;6.20;96.60;;;;;;5034249;28;20230;-70
2023/04/03 14:30:48;;;;;;;3.70;1.57;;;6.40;96.60;;;;;;5027097;28;20229;-69
2023/04/03 14:33:37;;;;;;;3.03;1.20;;;6.40;96.60;;;;;;5007236;28;20312;-71
2023/04/03 14:36:27;;;;;;;1.97;1.00;;;6.60;97.10;;;;;;5031454;28;20601;-73
2023/04/03 14:39:19;;;;;;;2.10;0.97;;;6.60;95.80;;;;;;5014694;28;20280;-71
2023/04/03 14:42:14;;;;;;;1.77;1.03;;;6.50;95.90;;;;;;5028257;28;20282;-82
2023/04/03 14:45:06;;;;;;;3.17;1.17;;;6.50;95.80;;;;;;5031474;28;20230;-77
2023/04/03 14:47:57;;;;;;;2.90;1.20;;;6.50;95.90;;;;;;5037506;28;20232;-76
2023/04/03 14:50:46;;;;;;;3.60;1.37;;;6.60;95.70;;;;;;5040007;28;20296;-76
2023/04/03 14:53:53;;;;;;;3.10;1.30;;;6.60;96.10;;;;;;5030162;28;20306;-78
2023/04/03 14:56:44;;;;;;;1.63;1.30;;;6.80;96.20;;;;;;5035008;28;20224;-79
2023/04/03 14:59:33;;;;;;;2.90;1.20;;;6.50;96.10;;;;;;5034300;28;20236;-81
2023/04/03 15:02:34;;;;;;;2.10;1.07;;;6.50;96.00;;;;;;5025608;28;20956;-78
2023/04/03 15:05:25;;;;;;;2.83;1.10;;;6.30;95.80;;;;;;5041109;28;20234;-77
2023/04/03 15:08:20;;;;;;;3.13;1.33;;;6.60;96.60;;;;;;5028106;28;20235;-79
2023/04/03 15:11:09;;;;;;;3.43;1.17;;;6.30;96.30;;;;;;5039224;28;20236;-79
2023/04/03 15:13:58;;;;;;;1.73;0.90;;;6.30;96.30;;;;;;5035252;28;20225;-78
2023/04/03 15:16:48;;;;;;;1.97;1.10;;;6.10;95.90;;;;;;5032064;28;20533;-79